Terminal Aerodrome Forecast
Issued by NWS

Home | Current Version | Previous Version | Text Only | Print | Product List | Glossary On
Versions: 1 2 3 4 5 6 7 8 9 10 11 12 13 14 15 16
000
FTUS43 KFGF 181100
TAFTVF
TAF
KTVF 181126Z 1812/1912 12008KT 2SM BR OVC004
      TEMPO 1812/1815 1/2SM FG OVC002
     FM181800 15014KT P6SM SCT010
     FM182200 16016G25KT P6SM SCT200
     FM190600 18014G24KT P6SM BKN120
      AMD LTD TO CLD VIS AND WIND=

USA.gov is the U.S. government's official web portal to all federal, state and local government web resources and services.